sensor_id;sensor_type;location;lat;lon;timestamp;temperature;humidity
67603;DHT22;54417;47.454;18.918;2022-08-25T00:04:53;17.42;93.47
67603;DHT22;54417;47.454;18.918;2022-08-25T00:10:18;17.34;93.67
67603;DHT22;54417;47.454;18.918;2022-08-25T00:15:41;17.36;93.91
67603;DHT22;54417;47.454;18.918;2022-08-25T00:21:07;17.38;93.90
67603;DHT22;54417;47.454;18.918;2022-08-25T00:26:31;17.25;93.67
67603;DHT22;54417;47.454;18.918;2022-08-25T00:31:55;17.30;93.66
67603;DHT22;54417;47.454;18.918;2022-08-25T00:37:20;17.32;93.62
67603;DHT22;54417;47.454;18.918;2022-08-25T00:42:44;17.31;93.49
67603;DHT22;54417;47.454;18.918;2022-08-25T00:48:08;17.25;93.44
67603;DHT22;54417;47.454;18.918;2022-08-25T00:53:33;17.08;93.42
67603;DHT22;54417;47.454;18.918;2022-08-25T00:58:58;17.07;93.73
67603;DHT22;54417;47.454;18.918;2022-08-25T01:04:22;17.00;93.54
67603;DHT22;54417;47.454;18.918;2022-08-25T01:09:49;16.95;93.76
67603;DHT22;54417;47.454;18.918;2022-08-25T01:15:15;16.97;93.88
67603;DHT22;54417;47.454;18.918;2022-08-25T01:20:40;16.94;93.69
67603;DHT22;54417;47.454;18.918;2022-08-25T01:26:09;16.99;93.69
67603;DHT22;54417;47.454;18.918;2022-08-25T01:31:34;16.86;93.45
67603;DHT22;54417;47.454;18.918;2022-08-25T01:36:59;16.79;93.58
67603;DHT22;54417;47.454;18.918;2022-08-25T01:42:32;16.77;93.98
67603;DHT22;54417;47.454;18.918;2022-08-25T01:48:00;16.79;93.99
67603;DHT22;54417;47.454;18.918;2022-08-25T01:53:26;16.72;93.99
67603;DHT22;54417;47.454;18.918;2022-08-25T01:58:54;16.79;94.02
67603;DHT22;54417;47.454;18.918;2022-08-25T02:04:18;16.72;93.78
67603;DHT22;54417;47.454;18.918;2022-08-25T02:09:43;16.65;93.76
67603;DHT22;54417;47.454;18.918;2022-08-25T02:15:09;16.67;93.75
67603;DHT22;54417;47.454;18.918;2022-08-25T02:20:33;16.66;93.62
67603;DHT22;54417;47.454;18.918;2022-08-25T02:25:56;16.60;93.57
67603;DHT22;54417;47.454;18.918;2022-08-25T02:31:22;16.60;93.63
67603;DHT22;54417;47.454;18.918;2022-08-25T02:36:46;16.57;93.56
67603;DHT22;54417;47.454;18.918;2022-08-25T02:42:10;16.48;93.55
67603;DHT22;54417;47.454;18.918;2022-08-25T02:47:35;16.51;93.96
67603;DHT22;54417;47.454;18.918;2022-08-25T02:52:59;16.53;94.18
67603;DHT22;54417;47.454;18.918;2022-08-25T02:58:23;16.51;94.22
67603;DHT22;54417;47.454;18.918;2022-08-25T03:03:49;16.52;94.14
67603;DHT22;54417;47.454;18.918;2022-08-25T03:09:14;16.48;94.00
67603;DHT22;54417;47.454;18.918;2022-08-25T03:14:38;16.45;93.94
67603;DHT22;54417;47.454;18.918;2022-08-25T03:20:06;16.44;94.12
67603;DHT22;54417;47.454;18.918;2022-08-25T03:25:30;16.41;94.19
67603;DHT22;54417;47.454;18.918;2022-08-25T03:31:11;16.32;94.12
67603;DHT22;54417;47.454;18.918;2022-08-25T03:36:37;16.39;94.03
67603;DHT22;54417;47.454;18.918;2022-08-25T03:42:01;16.30;93.86
67603;DHT22;54417;47.454;18.918;2022-08-25T03:47:25;16.32;93.86
67603;DHT22;54417;47.454;18.918;2022-08-25T03:52:54;16.25;93.86
67603;DHT22;54417;47.454;18.918;2022-08-25T03:58:17;16.30;94.23
67603;DHT22;54417;47.454;18.918;2022-08-25T04:03:41;16.35;94.28
67603;DHT22;54417;47.454;18.918;2022-08-25T04:09:06;16.33;94.06
67603;DHT22;54417;47.454;18.918;2022-08-25T04:14:30;16.36;94.04
67603;DHT22;54417;47.454;18.918;2022-08-25T04:19:54;16.49;93.96
67603;DHT22;54417;47.454;18.918;2022-08-25T04:25:20;16.53;94.08
67603;DHT22;54417;47.454;18.918;2022-08-25T04:30:43;16.66;94.16
67603;DHT22;54417;47.454;18.918;2022-08-25T04:36:14;16.83;94.07
67603;DHT22;54417;47.454;18.918;2022-08-25T04:41:40;16.95;94.02
67603;DHT22;54417;47.454;18.918;2022-08-25T04:47:04;17.13;93.97
67603;DHT22;54417;47.454;18.918;2022-08-25T04:52:28;17.36;94.04
67603;DHT22;54417;47.454;18.918;2022-08-25T04:57:53;17.58;93.87
67603;DHT22;54417;47.454;18.918;2022-08-25T05:03:16;17.78;93.78
67603;DHT22;54417;47.454;18.918;2022-08-25T05:08:40;18.06;93.89
67603;DHT22;54417;47.454;18.918;2022-08-25T05:14:08;18.33;93.85
67603;DHT22;54417;47.454;18.918;2022-08-25T05:19:34;18.57;93.62
67603;DHT22;54417;47.454;18.918;2022-08-25T05:24:58;18.88;93.50
67603;DHT22;54417;47.454;18.918;2022-08-25T05:30:23;19.13;93.13
67603;DHT22;54417;47.454;18.918;2022-08-25T05:35:47;19.33;92.70
67603;DHT22;54417;47.454;18.918;2022-08-25T05:41:13;19.50;92.23
67603;DHT22;54417;47.454;18.918;2022-08-25T05:46:39;19.79;92.38
67603;DHT22;54417;47.454;18.918;2022-08-25T05:52:03;19.91;91.33
67603;DHT22;54417;47.454;18.918;2022-08-25T05:57:26;20.19;91.35
67603;DHT22;54417;47.454;18.918;2022-08-25T06:02:51;20.47;91.19
67603;DHT22;54417;47.454;18.918;2022-08-25T06:08:15;20.71;91.22
67603;DHT22;54417;47.454;18.918;2022-08-25T06:13:39;21.02;91.04
67603;DHT22;54417;47.454;18.918;2022-08-25T06:19:05;21.37;90.83
67603;DHT22;54417;47.454;18.918;2022-08-25T06:24:29;21.66;91.01
67603;DHT22;54417;47.454;18.918;2022-08-25T06:29:53;21.98;90.47
67603;DHT22;54417;47.454;18.918;2022-08-25T06:35:22;22.21;88.78
67603;DHT22;54417;47.454;18.918;2022-08-25T06:40:47;22.48;89.18
67603;DHT22;54417;47.454;18.918;2022-08-25T06:46:12;22.81;87.39
67603;DHT22;54417;47.454;18.918;2022-08-25T06:51:38;23.00;87.14
67603;DHT22;54417;47.454;18.918;2022-08-25T06:57:03;23.30;88.24
67603;DHT22;54417;47.454;18.918;2022-08-25T07:02:28;23.54;85.50
67603;DHT22;54417;47.454;18.918;2022-08-25T07:07:57;23.70;84.12
67603;DHT22;54417;47.454;18.918;2022-08-25T07:13:21;23.99;84.91
67603;DHT22;54417;47.454;18.918;2022-08-25T07:18:46;24.23;83.32
67603;DHT22;54417;47.454;18.918;2022-08-25T07:24:12;24.44;81.83
67603;DHT22;54417;47.454;18.918;2022-08-25T07:29:36;24.55;82.01
67603;DHT22;54417;47.454;18.918;2022-08-25T07:35:04;24.67;81.88
67603;DHT22;54417;47.454;18.918;2022-08-25T07:40:41;24.91;80.63
67603;DHT22;54417;47.454;18.918;2022-08-25T07:46:14;25.03;78.64
67603;DHT22;54417;47.454;18.918;2022-08-25T07:51:38;25.31;75.53
67603;DHT22;54417;47.454;18.918;2022-08-25T07:57:23;25.21;76.70
67603;DHT22;54417;47.454;18.918;2022-08-25T08:02:48;25.63;73.07
67603;DHT22;54417;47.454;18.918;2022-08-25T08:08:12;25.92;72.98
67603;DHT22;54417;47.454;18.918;2022-08-25T08:13:37;25.97;71.63
67603;DHT22;54417;47.454;18.918;2022-08-25T08:19:03;26.24;68.59
67603;DHT22;54417;47.454;18.918;2022-08-25T08:24:28;26.48;69.45
67603;DHT22;54417;47.454;18.918;2022-08-25T08:30:13;26.73;69.97
67603;DHT22;54417;47.454;18.918;2022-08-25T08:35:37;26.73;66.62
67603;DHT22;54417;47.454;18.918;2022-08-25T08:41:16;26.88;67.12
67603;DHT22;54417;47.454;18.918;2022-08-25T08:47:29;26.95;62.70
67603;DHT22;54417;47.454;18.918;2022-08-25T08:52:59;27.14;63.19
67603;DHT22;54417;47.454;18.918;2022-08-25T08:58:34;27.34;63.05
67603;DHT22;54417;47.454;18.918;2022-08-25T09:04:11;27.68;63.88
67603;DHT22;54417;47.454;18.918;2022-08-25T09:09:37;27.75;59.69
67603;DHT22;54417;47.454;18.918;2022-08-25T09:15:10;28.05;58.84
67603;DHT22;54417;47.454;18.918;2022-08-25T09:20:46;28.27;59.46
67603;DHT22;54417;47.454;18.918;2022-08-25T09:26:21;28.56;59.70
67603;DHT22;54417;47.454;18.918;2022-08-25T09:31:48;28.63;58.23
67603;DHT22;54417;47.454;18.918;2022-08-25T09:37:14;28.70;55.31
67603;DHT22;54417;47.454;18.918;2022-08-25T09:42:49;28.88;57.44
67603;DHT22;54417;47.454;18.918;2022-08-25T09:48:23;29.01;56.95
67603;DHT22;54417;47.454;18.918;2022-08-25T09:53:53;29.16;55.71
67603;DHT22;54417;47.454;18.918;2022-08-25T09:59:20;29.04;54.58
67603;DHT22;54417;47.454;18.918;2022-08-25T10:04:56;29.10;55.14
67603;DHT22;54417;47.454;18.918;2022-08-25T10:10:26;28.80;54.64
67603;DHT22;54417;47.454;18.918;2022-08-25T10:16:04;28.61;54.32
67603;DHT22;54417;47.454;18.918;2022-08-25T10:22:01;28.91;55.88
67603;DHT22;54417;47.454;18.918;2022-08-25T10:27:32;28.97;54.83
67603;DHT22;54417;47.454;18.918;2022-08-25T10:33:14;28.84;54.82
67603;DHT22;54417;47.454;18.918;2022-08-25T10:38:43;28.92;53.52
67603;DHT22;54417;47.454;18.918;2022-08-25T10:44:12;29.08;54.71
67603;DHT22;54417;47.454;18.918;2022-08-25T10:49:54;29.35;54.44
67603;DHT22;54417;47.454;18.918;2022-08-25T10:55:22;29.22;52.72
67603;DHT22;54417;47.454;18.918;2022-08-25T11:00:56;29.36;52.38
67603;DHT22;54417;47.454;18.918;2022-08-25T11:06:24;29.63;51.23
67603;DHT22;54417;47.454;18.918;2022-08-25T11:11:54;29.45;51.44
67603;DHT22;54417;47.454;18.918;2022-08-25T11:17:24;29.63;50.50
67603;DHT22;54417;47.454;18.918;2022-08-25T11:22:52;29.70;51.92
67603;DHT22;54417;47.454;18.918;2022-08-25T11:28:22;29.80;50.00
67603;DHT22;54417;47.454;18.918;2022-08-25T11:33:51;30.07;50.55
67603;DHT22;54417;47.454;18.918;2022-08-25T11:39:24;30.35;52.87
67603;DHT22;54417;47.454;18.918;2022-08-25T11:45:01;30.58;49.53
67603;DHT22;54417;47.454;18.918;2022-08-25T11:50:32;30.72;49.37
67603;DHT22;54417;47.454;18.918;2022-08-25T11:55:58;30.79;48.83
67603;DHT22;54417;47.454;18.918;2022-08-25T12:07:58;31.35;49.80
67603;DHT22;54417;47.454;18.918;2022-08-25T12:13:45;31.86;48.80
67603;DHT22;54417;47.454;18.918;2022-08-25T12:19:30;32.06;46.24
67603;DHT22;54417;47.454;18.918;2022-08-25T12:31:00;31.24;49.51
67603;DHT22;54417;47.454;18.918;2022-08-25T12:36:28;31.06;49.51
67603;DHT22;54417;47.454;18.918;2022-08-25T12:42:00;31.03;49.91
67603;DHT22;54417;47.454;18.918;2022-08-25T12:47:29;31.24;46.31
67603;DHT22;54417;47.454;18.918;2022-08-25T12:53:05;31.48;45.93
67603;DHT22;54417;47.454;18.918;2022-08-25T12:58:36;31.43;45.66
67603;DHT22;54417;47.454;18.918;2022-08-25T13:04:53;31.53;46.76
67603;DHT22;54417;47.454;18.918;2022-08-25T13:10:26;31.57;50.14
67603;DHT22;54417;47.454;18.918;2022-08-25T13:16:04;31.57;49.18
67603;DHT22;54417;47.454;18.918;2022-08-25T13:21:30;31.48;48.02
67603;DHT22;54417;47.454;18.918;2022-08-25T13:26:59;31.50;47.03
67603;DHT22;54417;47.454;18.918;2022-08-25T13:32:29;31.72;47.63
67603;DHT22;54417;47.454;18.918;2022-08-25T13:38:11;32.10;48.12
67603;DHT22;54417;47.454;18.918;2022-08-25T13:43:35;32.44;46.15
67603;DHT22;54417;47.454;18.918;2022-08-25T13:49:05;32.71;45.82
67603;DHT22;54417;47.454;18.918;2022-08-25T13:54:34;32.41;46.12
67603;DHT22;54417;47.454;18.918;2022-08-25T14:00:05;32.12;47.60
67603;DHT22;54417;47.454;18.918;2022-08-25T14:05:35;31.68;49.01
67603;DHT22;54417;47.454;18.918;2022-08-25T14:11:07;31.57;49.76
67603;DHT22;54417;47.454;18.918;2022-08-25T14:16:38;31.24;49.05
67603;DHT22;54417;47.454;18.918;2022-08-25T14:22:06;31.53;49.90
67603;DHT22;54417;47.454;18.918;2022-08-25T14:27:29;31.41;46.45
67603;DHT22;54417;47.454;18.918;2022-08-25T14:33:04;31.30;48.24
67603;DHT22;54417;47.454;18.918;2022-08-25T14:38:29;31.44;48.67
67603;DHT22;54417;47.454;18.918;2022-08-25T14:43:53;31.53;49.07
67603;DHT22;54417;47.454;18.918;2022-08-25T14:49:20;31.48;50.11
67603;DHT22;54417;47.454;18.918;2022-08-25T14:54:47;31.48;48.89
67603;DHT22;54417;47.454;18.918;2022-08-25T15:00:11;31.51;49.63
67603;DHT22;54417;47.454;18.918;2022-08-25T15:05:39;31.64;49.65
67603;DHT22;54417;47.454;18.918;2022-08-25T15:11:04;31.61;50.59
67603;DHT22;54417;47.454;18.918;2022-08-25T15:16:32;31.54;50.24
67603;DHT22;54417;47.454;18.918;2022-08-25T15:21:57;31.27;50.55
67603;DHT22;54417;47.454;18.918;2022-08-25T15:27:22;32.87;46.18
67603;DHT22;54417;47.454;18.918;2022-08-25T15:32:52;32.80;47.08
67603;DHT22;54417;47.454;18.918;2022-08-25T15:38:17;34.41;42.86
67603;DHT22;54417;47.454;18.918;2022-08-25T15:43:43;34.64;42.83
67603;DHT22;54417;47.454;18.918;2022-08-25T15:49:07;34.13;43.69
67603;DHT22;54417;47.454;18.918;2022-08-25T15:54:32;34.40;42.97
67603;DHT22;54417;47.454;18.918;2022-08-25T15:59:58;32.70;46.72
67603;DHT22;54417;47.454;18.918;2022-08-25T16:05:25;31.07;49.33
67603;DHT22;54417;47.454;18.918;2022-08-25T16:10:49;30.41;51.62
67603;DHT22;54417;47.454;18.918;2022-08-25T16:16:14;29.96;53.01
67603;DHT22;54417;47.454;18.918;2022-08-25T16:21:38;29.67;53.64
67603;DHT22;54417;47.454;18.918;2022-08-25T16:27:08;29.36;54.06
67603;DHT22;54417;47.454;18.918;2022-08-25T16:32:34;29.19;55.14
67603;DHT22;54417;47.454;18.918;2022-08-25T16:37:58;28.94;55.05
67603;DHT22;54417;47.454;18.918;2022-08-25T16:43:25;28.74;55.29
67603;DHT22;54417;47.454;18.918;2022-08-25T16:48:50;28.63;55.71
67603;DHT22;54417;47.454;18.918;2022-08-25T16:54:14;28.36;56.18
67603;DHT22;54417;47.454;18.918;2022-08-25T16:59:51;28.19;56.05
67603;DHT22;54417;47.454;18.918;2022-08-25T17:05:17;28.01;57.13
67603;DHT22;54417;47.454;18.918;2022-08-25T17:10:41;27.91;57.66
67603;DHT22;54417;47.454;18.918;2022-08-25T17:16:06;27.72;57.74
67603;DHT22;54417;47.454;18.918;2022-08-25T17:21:34;27.57;58.78
67603;DHT22;54417;47.454;18.918;2022-08-25T17:26:58;27.40;59.06
67603;DHT22;54417;47.454;18.918;2022-08-25T17:32:23;27.22;59.10
67603;DHT22;54417;47.454;18.918;2022-08-25T17:37:53;27.16;59.60
67603;DHT22;54417;47.454;18.918;2022-08-25T17:43:17;26.93;60.68
67603;DHT22;54417;47.454;18.918;2022-08-25T17:48:42;26.61;61.72
67603;DHT22;54417;47.454;18.918;2022-08-25T17:54:08;26.37;63.53
67603;DHT22;54417;47.454;18.918;2022-08-25T17:59:32;26.17;63.67
67603;DHT22;54417;47.454;18.918;2022-08-25T18:04:56;26.07;63.31
67603;DHT22;54417;47.454;18.918;2022-08-25T18:10:21;26.10;63.86
67603;DHT22;54417;47.454;18.918;2022-08-25T18:15:46;25.93;63.73
67603;DHT22;54417;47.454;18.918;2022-08-25T18:21:11;25.89;63.86
67603;DHT22;54417;47.454;18.918;2022-08-25T18:26:36;25.87;64.11
67603;DHT22;54417;47.454;18.918;2022-08-25T18:32:00;26.00;63.70
67603;DHT22;54417;47.454;18.918;2022-08-25T18:37:26;25.97;63.93
67603;DHT22;54417;47.454;18.918;2022-08-25T18:43:10;25.72;64.86
67603;DHT22;54417;47.454;18.918;2022-08-25T18:48:34;25.58;65.37
67603;DHT22;54417;47.454;18.918;2022-08-25T18:53:58;25.41;65.63
67603;DHT22;54417;47.454;18.918;2022-08-25T18:59:24;25.25;66.78
67603;DHT22;54417;47.454;18.918;2022-08-25T19:04:48;24.98;67.78
67603;DHT22;54417;47.454;18.918;2022-08-25T19:10:14;24.76;68.45
67603;DHT22;54417;47.454;18.918;2022-08-25T19:15:43;24.60;69.96
67603;DHT22;54417;47.454;18.918;2022-08-25T19:21:07;24.40;71.08
67603;DHT22;54417;47.454;18.918;2022-08-25T19:26:32;24.18;71.72
67603;DHT22;54417;47.454;18.918;2022-08-25T19:31:59;24.05;72.77
67603;DHT22;54417;47.454;18.918;2022-08-25T19:37:26;23.91;73.98
67603;DHT22;54417;47.454;18.918;2022-08-25T19:42:50;23.84;74.13
67603;DHT22;54417;47.454;18.918;2022-08-25T19:48:17;23.68;75.37
67603;DHT22;54417;47.454;18.918;2022-08-25T19:53:42;23.51;75.78
67603;DHT22;54417;47.454;18.918;2022-08-25T19:59:06;23.34;75.95
67603;DHT22;54417;47.454;18.918;2022-08-25T20:04:31;23.27;75.92
67603;DHT22;54417;47.454;18.918;2022-08-25T20:09:58;23.28;75.53
67603;DHT22;54417;47.454;18.918;2022-08-25T20:15:22;23.02;77.01
67603;DHT22;54417;47.454;18.918;2022-08-25T20:20:47;22.93;76.47
67603;DHT22;54417;47.454;18.918;2022-08-25T20:26:11;22.89;76.28
67603;DHT22;54417;47.454;18.918;2022-08-25T20:31:35;22.85;76.53
67603;DHT22;54417;47.454;18.918;2022-08-25T20:37:01;22.66;78.40
67603;DHT22;54417;47.454;18.918;2022-08-25T20:42:28;22.56;78.67
67603;DHT22;54417;47.454;18.918;2022-08-25T20:47:52;22.55;78.10
67603;DHT22;54417;47.454;18.918;2022-08-25T20:53:17;22.48;77.82
67603;DHT22;54417;47.454;18.918;2022-08-25T20:58:46;22.51;78.12
67603;DHT22;54417;47.454;18.918;2022-08-25T21:04:12;22.38;78.17
67603;DHT22;54417;47.454;18.918;2022-08-25T21:09:38;22.43;77.98
67603;DHT22;54417;47.454;18.918;2022-08-25T21:15:02;22.48;77.42
67603;DHT22;54417;47.454;18.918;2022-08-25T21:20:28;22.41;77.49
67603;DHT22;54417;47.454;18.918;2022-08-25T21:25:53;22.65;76.56
67603;DHT22;54417;47.454;18.918;2022-08-25T21:31:19;22.68;76.27
67603;DHT22;54417;47.454;18.918;2022-08-25T21:36:43;22.56;76.53
67603;DHT22;54417;47.454;18.918;2022-08-25T21:42:09;22.49;77.14
67603;DHT22;54417;47.454;18.918;2022-08-25T21:47:38;22.47;76.31
67603;DHT22;54417;47.454;18.918;2022-08-25T21:53:04;22.35;77.11
67603;DHT22;54417;47.454;18.918;2022-08-25T21:58:31;22.24;77.54
67603;DHT22;54417;47.454;18.918;2022-08-25T22:03:55;22.13;77.71
67603;DHT22;54417;47.454;18.918;2022-08-25T22:09:18;22.10;78.07
67603;DHT22;54417;47.454;18.918;2022-08-25T22:14:43;22.10;78.42
67603;DHT22;54417;47.454;18.918;2022-08-25T22:20:08;21.98;78.54
67603;DHT22;54417;47.454;18.918;2022-08-25T22:25:32;21.96;78.27
67603;DHT22;54417;47.454;18.918;2022-08-25T22:31:02;21.94;78.05
67603;DHT22;54417;47.454;18.918;2022-08-25T22:36:31;21.83;79.01
67603;DHT22;54417;47.454;18.918;2022-08-25T22:41:55;21.69;78.79
67603;DHT22;54417;47.454;18.918;2022-08-25T22:47:21;21.65;78.84
67603;DHT22;54417;47.454;18.918;2022-08-25T22:52:46;21.60;78.86
67603;DHT22;54417;47.454;18.918;2022-08-25T22:58:10;21.49;79.25
67603;DHT22;54417;47.454;18.918;2022-08-25T23:03:37;21.37;79.75
67603;DHT22;54417;47.454;18.918;2022-08-25T23:09:07;21.31;79.28
67603;DHT22;54417;47.454;18.918;2022-08-25T23:14:32;21.25;79.79
67603;DHT22;54417;47.454;18.918;2022-08-25T23:19:58;21.14;79.91
67603;DHT22;54417;47.454;18.918;2022-08-25T23:25:42;21.08;80.12
67603;DHT22;54417;47.454;18.918;2022-08-25T23:31:06;21.01;80.50
67603;DHT22;54417;47.454;18.918;2022-08-25T23:36:34;21.01;80.58
67603;DHT22;54417;47.454;18.918;2022-08-25T23:41:58;21.00;80.59
67603;DHT22;54417;47.454;18.918;2022-08-25T23:47:21;20.97;81.00
67603;DHT22;54417;47.454;18.918;2022-08-25T23:52:46;20.92;80.88
67603;DHT22;54417;47.454;18.918;2022-08-25T23:58:10;20.94;80.41
